sensor_id;sensor_type;location;lat;lon;timestamp;P1;durP1;ratioP1;P2;durP2;ratioP2
77513;SDS011;66626;48.872;9.084;2024-01-07T00:00:12;16.20;;;6.93;;
77513;SDS011;66626;48.872;9.084;2024-01-07T00:02:37;14.00;;;6.45;;
77513;SDS011;66626;48.872;9.084;2024-01-07T00:05:03;13.88;;;7.47;;
77513;SDS011;66626;48.872;9.084;2024-01-07T00:07:28;14.55;;;6.97;;
77513;SDS011;66626;48.872;9.084;2024-01-07T00:09:54;15.48;;;7.05;;
77513;SDS011;66626;48.872;9.084;2024-01-07T00:12:19;17.42;;;8.88;;
77513;SDS011;66626;48.872;9.084;2024-01-07T00:14:44;15.00;;;7.32;;
77513;SDS011;66626;48.872;9.084;2024-01-07T00:17:10;18.10;;;7.78;;
77513;SDS011;66626;48.872;9.084;2024-01-07T00:19:35;15.32;;;7.32;;
77513;SDS011;66626;48.872;9.084;2024-01-07T00:22:02;18.27;;;7.57;;
77513;SDS011;66626;48.872;9.084;2024-01-07T00:24:27;20.50;;;8.32;;
77513;SDS011;66626;48.872;9.084;2024-01-07T00:26:54;21.75;;;9.30;;
77513;SDS011;66626;48.872;9.084;2024-01-07T00:29:19;19.75;;;8.20;;
77513;SDS011;66626;48.872;9.084;2024-01-07T00:31:45;20.17;;;9.00;;
77513;SDS011;66626;48.872;9.084;2024-01-07T00:34:10;18.60;;;8.35;;
77513;SDS011;66626;48.872;9.084;2024-01-07T00:36:35;22.13;;;8.93;;
77513;SDS011;66626;48.872;9.084;2024-01-07T00:39:01;22.85;;;9.70;;
77513;SDS011;66626;48.872;9.084;2024-01-07T00:41:26;22.00;;;9.90;;
77513;SDS011;66626;48.872;9.084;2024-01-07T00:43:51;26.20;;;11.13;;
77513;SDS011;66626;48.872;9.084;2024-01-07T00:46:17;24.85;;;10.15;;
77513;SDS011;66626;48.872;9.084;2024-01-07T00:48:42;23.48;;;9.20;;
77513;SDS011;66626;48.872;9.084;2024-01-07T00:51:08;28.33;;;10.80;;
77513;SDS011;66626;48.872;9.084;2024-01-07T00:53:33;28.65;;;12.07;;
77513;SDS011;66626;48.872;9.084;2024-01-07T00:55:59;25.20;;;9.90;;
77513;SDS011;66626;48.872;9.084;2024-01-07T00:58:24;23.88;;;10.30;;
77513;SDS011;66626;48.872;9.084;2024-01-07T01:00:49;27.80;;;10.25;;
77513;SDS011;66626;48.872;9.084;2024-01-07T01:03:15;22.05;;;9.93;;
77513;SDS011;66626;48.872;9.084;2024-01-07T01:05:41;23.65;;;9.77;;
77513;SDS011;66626;48.872;9.084;2024-01-07T01:08:06;25.15;;;9.80;;
77513;SDS011;66626;48.872;9.084;2024-01-07T01:10:32;27.30;;;10.75;;
77513;SDS011;66626;48.872;9.084;2024-01-07T01:12:57;26.45;;;10.80;;
77513;SDS011;66626;48.872;9.084;2024-01-07T01:15:22;25.80;;;9.93;;
77513;SDS011;66626;48.872;9.084;2024-01-07T01:17:48;28.63;;;10.43;;
77513;SDS011;66626;48.872;9.084;2024-01-07T01:20:13;26.58;;;9.95;;
77513;SDS011;66626;48.872;9.084;2024-01-07T01:22:39;29.27;;;10.15;;
77513;SDS011;66626;48.872;9.084;2024-01-07T01:25:05;30.48;;;12.02;;
77513;SDS011;66626;48.872;9.084;2024-01-07T01:27:30;28.35;;;10.48;;
77513;SDS011;66626;48.872;9.084;2024-01-07T01:29:56;28.08;;;12.60;;
77513;SDS011;66626;48.872;9.084;2024-01-07T01:32:21;25.55;;;10.93;;
77513;SDS011;66626;48.872;9.084;2024-01-07T01:34:47;23.08;;;10.52;;
77513;SDS011;66626;48.872;9.084;2024-01-07T01:37:12;30.15;;;10.80;;
77513;SDS011;66626;48.872;9.084;2024-01-07T01:39:40;26.63;;;10.32;;
77513;SDS011;66626;48.872;9.084;2024-01-07T01:42:06;21.23;;;10.55;;
77513;SDS011;66626;48.872;9.084;2024-01-07T01:44:31;32.13;;;11.45;;
77513;SDS011;66626;48.872;9.084;2024-01-07T01:46:56;32.10;;;12.45;;
77513;SDS011;66626;48.872;9.084;2024-01-07T01:49:22;24.27;;;10.30;;
77513;SDS011;66626;48.872;9.084;2024-01-07T01:51:49;26.38;;;10.55;;
77513;SDS011;66626;48.872;9.084;2024-01-07T01:54:15;18.42;;;9.52;;
77513;SDS011;66626;48.872;9.084;2024-01-07T01:56:40;19.63;;;9.45;;
77513;SDS011;66626;48.872;9.084;2024-01-07T01:59:05;20.92;;;9.38;;
77513;SDS011;66626;48.872;9.084;2024-01-07T02:01:31;28.75;;;11.15;;
77513;SDS011;66626;48.872;9.084;2024-01-07T02:03:56;18.42;;;9.52;;
77513;SDS011;66626;48.872;9.084;2024-01-07T02:06:22;19.70;;;9.10;;
77513;SDS011;66626;48.872;9.084;2024-01-07T02:08:48;24.30;;;10.73;;
77513;SDS011;66626;48.872;9.084;2024-01-07T02:11:14;24.95;;;9.80;;
77513;SDS011;66626;48.872;9.084;2024-01-07T02:13:43;19.08;;;8.90;;
77513;SDS011;66626;48.872;9.084;2024-01-07T02:16:09;22.38;;;9.70;;
77513;SDS011;66626;48.872;9.084;2024-01-07T02:18:34;19.55;;;8.63;;
77513;SDS011;66626;48.872;9.084;2024-01-07T02:20:59;22.08;;;10.63;;
77513;SDS011;66626;48.872;9.084;2024-01-07T02:23:25;23.17;;;9.70;;
77513;SDS011;66626;48.872;9.084;2024-01-07T02:25:50;16.65;;;8.68;;
77513;SDS011;66626;48.872;9.084;2024-01-07T02:28:15;15.93;;;8.77;;
77513;SDS011;66626;48.872;9.084;2024-01-07T02:30:40;19.83;;;8.68;;
77513;SDS011;66626;48.872;9.084;2024-01-07T02:33:06;19.60;;;8.77;;
77513;SDS011;66626;48.872;9.084;2024-01-07T02:35:31;19.38;;;9.10;;
77513;SDS011;66626;48.872;9.084;2024-01-07T02:37:56;19.75;;;8.15;;
77513;SDS011;66626;48.872;9.084;2024-01-07T02:40:22;17.63;;;8.02;;
77513;SDS011;66626;48.872;9.084;2024-01-07T02:42:47;15.65;;;7.38;;
77513;SDS011;66626;48.872;9.084;2024-01-07T02:45:12;12.60;;;6.38;;
77513;SDS011;66626;48.872;9.084;2024-01-07T02:47:38;23.23;;;8.68;;
77513;SDS011;66626;48.872;9.084;2024-01-07T02:50:03;16.02;;;7.47;;
77513;SDS011;66626;48.872;9.084;2024-01-07T02:52:29;22.50;;;8.43;;
77513;SDS011;66626;48.872;9.084;2024-01-07T02:54:54;15.05;;;7.25;;
77513;SDS011;66626;48.872;9.084;2024-01-07T02:57:19;20.23;;;8.95;;
77513;SDS011;66626;48.872;9.084;2024-01-07T02:59:44;16.95;;;7.55;;
77513;SDS011;66626;48.872;9.084;2024-01-07T03:02:10;17.77;;;8.73;;
77513;SDS011;66626;48.872;9.084;2024-01-07T03:04:35;21.30;;;9.02;;
77513;SDS011;66626;48.872;9.084;2024-01-07T03:07:00;19.15;;;8.23;;
77513;SDS011;66626;48.872;9.084;2024-01-07T03:09:26;18.73;;;8.93;;
77513;SDS011;66626;48.872;9.084;2024-01-07T03:11:51;23.40;;;10.35;;
77513;SDS011;66626;48.872;9.084;2024-01-07T03:14:16;19.05;;;9.35;;
77513;SDS011;66626;48.872;9.084;2024-01-07T03:16:45;22.40;;;9.88;;
77513;SDS011;66626;48.872;9.084;2024-01-07T03:19:10;19.95;;;8.85;;
77513;SDS011;66626;48.872;9.084;2024-01-07T03:21:36;19.67;;;9.68;;
77513;SDS011;66626;48.872;9.084;2024-01-07T03:24:01;20.02;;;7.97;;
77513;SDS011;66626;48.872;9.084;2024-01-07T03:26:28;17.50;;;8.30;;
77513;SDS011;66626;48.872;9.084;2024-01-07T03:28:55;15.45;;;7.97;;
77513;SDS011;66626;48.872;9.084;2024-01-07T03:31:24;21.92;;;9.10;;
77513;SDS011;66626;48.872;9.084;2024-01-07T03:33:49;15.35;;;6.63;;
77513;SDS011;66626;48.872;9.084;2024-01-07T03:36:14;20.63;;;8.00;;
77513;SDS011;66626;48.872;9.084;2024-01-07T03:38:40;19.60;;;8.45;;
77513;SDS011;66626;48.872;9.084;2024-01-07T03:41:06;21.50;;;9.32;;
77513;SDS011;66626;48.872;9.084;2024-01-07T03:43:31;20.70;;;8.13;;
77513;SDS011;66626;48.872;9.084;2024-01-07T03:45:57;16.77;;;8.23;;
77513;SDS011;66626;48.872;9.084;2024-01-07T03:48:22;18.40;;;7.53;;
77513;SDS011;66626;48.872;9.084;2024-01-07T03:50:48;14.55;;;6.10;;
77513;SDS011;66626;48.872;9.084;2024-01-07T03:53:13;16.15;;;7.28;;
77513;SDS011;66626;48.872;9.084;2024-01-07T03:55:40;14.90;;;7.20;;
77513;SDS011;66626;48.872;9.084;2024-01-07T03:58:05;24.02;;;7.97;;
77513;SDS011;66626;48.872;9.084;2024-01-07T04:00:31;16.17;;;6.90;;
77513;SDS011;66626;48.872;9.084;2024-01-07T04:02:56;14.93;;;6.43;;
77513;SDS011;66626;48.872;9.084;2024-01-07T04:05:21;15.45;;;6.38;;
77513;SDS011;66626;48.872;9.084;2024-01-07T04:07:47;15.60;;;7.07;;
77513;SDS011;66626;48.872;9.084;2024-01-07T04:10:12;15.50;;;7.63;;
77513;SDS011;66626;48.872;9.084;2024-01-07T04:12:37;14.82;;;6.38;;
77513;SDS011;66626;48.872;9.084;2024-01-07T04:15:03;15.65;;;7.38;;
77513;SDS011;66626;48.872;9.084;2024-01-07T04:17:29;19.17;;;7.72;;
77513;SDS011;66626;48.872;9.084;2024-01-07T04:19:54;16.77;;;7.88;;
77513;SDS011;66626;48.872;9.084;2024-01-07T04:22:20;18.65;;;7.38;;
77513;SDS011;66626;48.872;9.084;2024-01-07T04:24:45;13.95;;;6.05;;
77513;SDS011;66626;48.872;9.084;2024-01-07T04:27:10;19.40;;;7.40;;
77513;SDS011;66626;48.872;9.084;2024-01-07T04:29:36;20.27;;;6.40;;
77513;SDS011;66626;48.872;9.084;2024-01-07T04:32:01;19.17;;;6.95;;
77513;SDS011;66626;48.872;9.084;2024-01-07T04:34:26;16.70;;;7.32;;
77513;SDS011;66626;48.872;9.084;2024-01-07T04:36:52;18.23;;;6.63;;
77513;SDS011;66626;48.872;9.084;2024-01-07T04:39:17;16.48;;;7.55;;
77513;SDS011;66626;48.872;9.084;2024-01-07T04:41:42;13.02;;;6.00;;
77513;SDS011;66626;48.872;9.084;2024-01-07T04:44:08;16.33;;;6.82;;
77513;SDS011;66626;48.872;9.084;2024-01-07T04:46:34;15.68;;;6.68;;
77513;SDS011;66626;48.872;9.084;2024-01-07T04:49:00;14.75;;;6.30;;
77513;SDS011;66626;48.872;9.084;2024-01-07T04:51:26;21.60;;;8.85;;
77513;SDS011;66626;48.872;9.084;2024-01-07T04:53:51;13.80;;;6.35;;
77513;SDS011;66626;48.872;9.084;2024-01-07T04:56:16;15.20;;;6.38;;
77513;SDS011;66626;48.872;9.084;2024-01-07T04:58:42;18.33;;;8.10;;
77513;SDS011;66626;48.872;9.084;2024-01-07T05:01:07;19.40;;;6.88;;
77513;SDS011;66626;48.872;9.084;2024-01-07T05:03:32;16.27;;;6.82;;
77513;SDS011;66626;48.872;9.084;2024-01-07T05:05:59;16.38;;;7.22;;
77513;SDS011;66626;48.872;9.084;2024-01-07T05:08:24;16.85;;;7.05;;
77513;SDS011;66626;48.872;9.084;2024-01-07T05:10:49;16.13;;;7.22;;
77513;SDS011;66626;48.872;9.084;2024-01-07T05:13:15;16.75;;;7.82;;
77513;SDS011;66626;48.872;9.084;2024-01-07T05:15:40;14.65;;;7.55;;
77513;SDS011;66626;48.872;9.084;2024-01-07T05:18:08;17.98;;;8.05;;
77513;SDS011;66626;48.872;9.084;2024-01-07T05:20:34;18.30;;;8.20;;
77513;SDS011;66626;48.872;9.084;2024-01-07T05:23:00;16.02;;;6.72;;
77513;SDS011;66626;48.872;9.084;2024-01-07T05:25:25;15.80;;;6.38;;
77513;SDS011;66626;48.872;9.084;2024-01-07T05:27:50;16.70;;;7.50;;
77513;SDS011;66626;48.872;9.084;2024-01-07T05:30:15;17.63;;;7.28;;
77513;SDS011;66626;48.872;9.084;2024-01-07T05:32:41;16.58;;;6.80;;
77513;SDS011;66626;48.872;9.084;2024-01-07T05:35:06;15.95;;;7.25;;
77513;SDS011;66626;48.872;9.084;2024-01-07T05:37:32;14.32;;;6.07;;
77513;SDS011;66626;48.872;9.084;2024-01-07T05:39:57;15.32;;;7.25;;
77513;SDS011;66626;48.872;9.084;2024-01-07T05:42:22;13.98;;;6.90;;
77513;SDS011;66626;48.872;9.084;2024-01-07T05:44:48;17.92;;;7.32;;
77513;SDS011;66626;48.872;9.084;2024-01-07T05:47:13;16.98;;;7.53;;
77513;SDS011;66626;48.872;9.084;2024-01-07T05:49:38;15.57;;;7.60;;
77513;SDS011;66626;48.872;9.084;2024-01-07T05:52:04;16.58;;;7.97;;
77513;SDS011;66626;48.872;9.084;2024-01-07T05:54:29;14.95;;;6.53;;
77513;SDS011;66626;48.872;9.084;2024-01-07T05:56:54;12.95;;;5.80;;
77513;SDS011;66626;48.872;9.084;2024-01-07T05:59:20;13.00;;;6.10;;
77513;SDS011;66626;48.872;9.084;2024-01-07T06:01:45;16.08;;;6.00;;
77513;SDS011;66626;48.872;9.084;2024-01-07T06:04:10;13.68;;;6.18;;
77513;SDS011;66626;48.872;9.084;2024-01-07T06:06:36;14.02;;;6.30;;
77513;SDS011;66626;48.872;9.084;2024-01-07T06:09:01;14.65;;;7.18;;
77513;SDS011;66626;48.872;9.084;2024-01-07T06:11:27;14.68;;;7.13;;
77513;SDS011;66626;48.872;9.084;2024-01-07T06:13:52;17.15;;;6.95;;
77513;SDS011;66626;48.872;9.084;2024-01-07T06:16:18;7.95;;;4.30;;
77513;SDS011;66626;48.872;9.084;2024-01-07T06:18:43;13.77;;;6.70;;
77513;SDS011;66626;48.872;9.084;2024-01-07T06:21:08;18.90;;;6.90;;
77513;SDS011;66626;48.872;9.084;2024-01-07T06:23:34;12.27;;;6.18;;
77513;SDS011;66626;48.872;9.084;2024-01-07T06:26:02;13.38;;;6.05;;
77513;SDS011;66626;48.872;9.084;2024-01-07T06:28:28;11.90;;;5.93;;
77513;SDS011;66626;48.872;9.084;2024-01-07T06:30:53;14.18;;;6.32;;
77513;SDS011;66626;48.872;9.084;2024-01-07T06:33:18;17.48;;;6.78;;
77513;SDS011;66626;48.872;9.084;2024-01-07T06:35:45;16.52;;;7.65;;
77513;SDS011;66626;48.872;9.084;2024-01-07T06:38:11;17.15;;;6.93;;
77513;SDS011;66626;48.872;9.084;2024-01-07T06:40:36;12.48;;;6.35;;
77513;SDS011;66626;48.872;9.084;2024-01-07T06:43:01;14.15;;;6.97;;
77513;SDS011;66626;48.872;9.084;2024-01-07T06:45:27;14.60;;;6.53;;
77513;SDS011;66626;48.872;9.084;2024-01-07T06:47:52;14.68;;;7.75;;
77513;SDS011;66626;48.872;9.084;2024-01-07T06:50:18;16.52;;;7.05;;
77513;SDS011;66626;48.872;9.084;2024-01-07T06:52:45;13.95;;;7.30;;
77513;SDS011;66626;48.872;9.084;2024-01-07T06:55:10;14.70;;;6.90;;
77513;SDS011;66626;48.872;9.084;2024-01-07T06:57:36;14.43;;;6.70;;
77513;SDS011;66626;48.872;9.084;2024-01-07T07:00:01;9.50;;;5.68;;
77513;SDS011;66626;48.872;9.084;2024-01-07T07:02:27;15.63;;;7.65;;
77513;SDS011;66626;48.872;9.084;2024-01-07T07:04:53;14.93;;;7.05;;
77513;SDS011;66626;48.872;9.084;2024-01-07T07:07:18;12.35;;;5.72;;
77513;SDS011;66626;48.872;9.084;2024-01-07T07:09:43;5.32;;;2.97;;
77513;SDS011;66626;48.872;9.084;2024-01-07T07:12:09;12.57;;;7.28;;
77513;SDS011;66626;48.872;9.084;2024-01-07T07:14:34;12.48;;;6.32;;
77513;SDS011;66626;48.872;9.084;2024-01-07T07:16:59;13.20;;;5.72;;
77513;SDS011;66626;48.872;9.084;2024-01-07T07:19:25;12.43;;;6.35;;
77513;SDS011;66626;48.872;9.084;2024-01-07T07:21:50;5.93;;;3.67;;
77513;SDS011;66626;48.872;9.084;2024-01-07T07:24:15;7.65;;;3.80;;
77513;SDS011;66626;48.872;9.084;2024-01-07T07:26:41;10.80;;;5.85;;
77513;SDS011;66626;48.872;9.084;2024-01-07T07:29:08;9.25;;;4.18;;
77513;SDS011;66626;48.872;9.084;2024-01-07T07:31:36;10.82;;;5.13;;
77513;SDS011;66626;48.872;9.084;2024-01-07T07:34:04;10.93;;;5.35;;
77513;SDS011;66626;48.872;9.084;2024-01-07T07:36:30;9.80;;;5.38;;
77513;SDS011;66626;48.872;9.084;2024-01-07T07:38:55;11.02;;;5.80;;
77513;SDS011;66626;48.872;9.084;2024-01-07T07:41:21;14.02;;;4.95;;
77513;SDS011;66626;48.872;9.084;2024-01-07T07:43:46;8.93;;;4.35;;
77513;SDS011;66626;48.872;9.084;2024-01-07T07:46:11;11.80;;;5.00;;
77513;SDS011;66626;48.872;9.084;2024-01-07T07:48:37;6.40;;;3.50;;
77513;SDS011;66626;48.872;9.084;2024-01-07T07:51:02;8.93;;;4.28;;
77513;SDS011;66626;48.872;9.084;2024-01-07T07:53:28;8.90;;;4.63;;
77513;SDS011;66626;48.872;9.084;2024-01-07T07:55:53;7.72;;;3.97;;
77513;SDS011;66626;48.872;9.084;2024-01-07T07:58:18;10.63;;;4.82;;
77513;SDS011;66626;48.872;9.084;2024-01-07T08:00:44;7.75;;;3.50;;
77513;SDS011;66626;48.872;9.084;2024-01-07T08:03:10;7.43;;;3.25;;
77513;SDS011;66626;48.872;9.084;2024-01-07T08:05:35;11.02;;;5.65;;
77513;SDS011;66626;48.872;9.084;2024-01-07T08:08:00;8.13;;;4.65;;
77513;SDS011;66626;48.872;9.084;2024-01-07T08:10:26;6.05;;;3.42;;
77513;SDS011;66626;48.872;9.084;2024-01-07T08:12:53;8.00;;;3.95;;
77513;SDS011;66626;48.872;9.084;2024-01-07T08:15:18;9.48;;;3.08;;
77513;SDS011;66626;48.872;9.084;2024-01-07T08:17:44;6.50;;;3.42;;
77513;SDS011;66626;48.872;9.084;2024-01-07T08:20:09;7.55;;;3.38;;
77513;SDS011;66626;48.872;9.084;2024-01-07T08:22:35;7.22;;;3.20;;
77513;SDS011;66626;48.872;9.084;2024-01-07T08:25:00;11.25;;;3.95;;
77513;SDS011;66626;48.872;9.084;2024-01-07T08:27:26;7.25;;;3.72;;
77513;SDS011;66626;48.872;9.084;2024-01-07T08:29:52;6.60;;;3.58;;
77513;SDS011;66626;48.872;9.084;2024-01-07T08:32:17;6.97;;;2.67;;
77513;SDS011;66626;48.872;9.084;2024-01-07T08:34:44;8.77;;;3.70;;
77513;SDS011;66626;48.872;9.084;2024-01-07T08:37:09;7.65;;;3.20;;
77513;SDS011;66626;48.872;9.084;2024-01-07T08:39:34;4.43;;;2.63;;
77513;SDS011;66626;48.872;9.084;2024-01-07T08:42:00;4.20;;;2.10;;
77513;SDS011;66626;48.872;9.084;2024-01-07T08:44:25;5.78;;;3.55;;
77513;SDS011;66626;48.872;9.084;2024-01-07T08:46:51;9.48;;;3.72;;
77513;SDS011;66626;48.872;9.084;2024-01-07T08:49:16;7.05;;;3.55;;
77513;SDS011;66626;48.872;9.084;2024-01-07T08:51:41;7.38;;;2.63;;
77513;SDS011;66626;48.872;9.084;2024-01-07T08:54:07;6.05;;;2.63;;
77513;SDS011;66626;48.872;9.084;2024-01-07T08:56:32;5.28;;;1.80;;
77513;SDS011;66626;48.872;9.084;2024-01-07T08:58:58;9.15;;;2.83;;
77513;SDS011;66626;48.872;9.084;2024-01-07T09:01:24;3.50;;;1.75;;
77513;SDS011;66626;48.872;9.084;2024-01-07T09:03:49;5.35;;;2.20;;
77513;SDS011;66626;48.872;9.084;2024-01-07T09:06:14;8.38;;;3.72;;
77513;SDS011;66626;48.872;9.084;2024-01-07T09:08:40;7.88;;;3.25;;
77513;SDS011;66626;48.872;9.084;2024-01-07T09:11:05;11.35;;;4.10;;
77513;SDS011;66626;48.872;9.084;2024-01-07T09:13:32;8.20;;;3.78;;
77513;SDS011;66626;48.872;9.084;2024-01-07T09:15:57;6.80;;;4.10;;
77513;SDS011;66626;48.872;9.084;2024-01-07T09:18:23;6.82;;;3.88;;
77513;SDS011;66626;48.872;9.084;2024-01-07T09:20:48;8.18;;;4.00;;
77513;SDS011;66626;48.872;9.084;2024-01-07T09:23:13;7.55;;;2.67;;
77513;SDS011;66626;48.872;9.084;2024-01-07T09:25:40;7.72;;;3.42;;
77513;SDS011;66626;48.872;9.084;2024-01-07T09:28:06;7.97;;;3.38;;
77513;SDS011;66626;48.872;9.084;2024-01-07T09:30:31;12.65;;;4.57;;
77513;SDS011;66626;48.872;9.084;2024-01-07T09:32:57;13.55;;;4.78;;
77513;SDS011;66626;48.872;9.084;2024-01-07T09:35:22;10.07;;;4.10;;
77513;SDS011;66626;48.872;9.084;2024-01-07T09:37:47;9.23;;;4.65;;
77513;SDS011;66626;48.872;9.084;2024-01-07T09:40:16;9.15;;;3.47;;
77513;SDS011;66626;48.872;9.084;2024-01-07T09:42:43;9.10;;;4.75;;
77513;SDS011;66626;48.872;9.084;2024-01-07T09:45:08;11.13;;;5.05;;
77513;SDS011;66626;48.872;9.084;2024-01-07T09:47:37;8.50;;;4.25;;
77513;SDS011;66626;48.872;9.084;2024-01-07T09:50:06;9.52;;;4.10;;
77513;SDS011;66626;48.872;9.084;2024-01-07T09:52:32;11.52;;;5.43;;
77513;SDS011;66626;48.872;9.084;2024-01-07T09:54:59;8.30;;;3.83;;
77513;SDS011;66626;48.872;9.084;2024-01-07T09:57:25;8.88;;;4.05;;
77513;SDS011;66626;48.872;9.084;2024-01-07T09:59:51;5.68;;;3.08;;
77513;SDS011;66626;48.872;9.084;2024-01-07T10:02:16;7.53;;;3.65;;
77513;SDS011;66626;48.872;9.084;2024-01-07T10:04:41;7.40;;;3.55;;
77513;SDS011;66626;48.872;9.084;2024-01-07T10:07:07;9.20;;;4.85;;
77513;SDS011;66626;48.872;9.084;2024-01-07T10:09:33;4.20;;;2.22;;
77513;SDS011;66626;48.872;9.084;2024-01-07T10:11:59;7.68;;;3.83;;
77513;SDS011;66626;48.872;9.084;2024-01-07T10:14:24;3.92;;;2.00;;
77513;SDS011;66626;48.872;9.084;2024-01-07T10:16:51;5.53;;;2.65;;
77513;SDS011;66626;48.872;9.084;2024-01-07T10:19:19;10.38;;;4.68;;
77513;SDS011;66626;48.872;9.084;2024-01-07T10:21:58;4.50;;;1.85;;
77513;SDS011;66626;48.872;9.084;2024-01-07T10:24:24;5.95;;;2.53;;
77513;SDS011;66626;48.872;9.084;2024-01-07T10:26:50;4.25;;;1.98;;
77513;SDS011;66626;48.872;9.084;2024-01-07T10:29:15;4.60;;;2.15;;
77513;SDS011;66626;48.872;9.084;2024-01-07T10:31:41;5.78;;;2.22;;
77513;SDS011;66626;48.872;9.084;2024-01-07T10:34:07;4.57;;;1.95;;
77513;SDS011;66626;48.872;9.084;2024-01-07T10:36:34;4.70;;;2.63;;
77513;SDS011;66626;48.872;9.084;2024-01-07T10:38:59;6.07;;;2.70;;
77513;SDS011;66626;48.872;9.084;2024-01-07T10:41:24;4.72;;;2.47;;
77513;SDS011;66626;48.872;9.084;2024-01-07T10:43:50;5.00;;;2.63;;
77513;SDS011;66626;48.872;9.084;2024-01-07T10:46:15;5.80;;;2.22;;
77513;SDS011;66626;48.872;9.084;2024-01-07T10:48:45;7.65;;;3.03;;
77513;SDS011;66626;48.872;9.084;2024-01-07T10:51:20;5.40;;;2.55;;
77513;SDS011;66626;48.872;9.084;2024-01-07T10:53:47;6.95;;;2.95;;
77513;SDS011;66626;48.872;9.084;2024-01-07T10:56:18;5.07;;;2.50;;
77513;SDS011;66626;48.872;9.084;2024-01-07T10:58:53;6.63;;;3.30;;
77513;SDS011;66626;48.872;9.084;2024-01-07T11:01:22;6.97;;;2.53;;
77513;SDS011;66626;48.872;9.084;2024-01-07T11:03:54;16.38;;;6.93;;
77513;SDS011;66626;48.872;9.084;2024-01-07T11:11:38;6.90;;;3.42;;
77513;SDS011;66626;48.872;9.084;2024-01-07T11:14:09;7.35;;;3.10;;
77513;SDS011;66626;48.872;9.084;2024-01-07T11:17:12;3.28;;;1.55;;
77513;SDS011;66626;48.872;9.084;2024-01-07T11:19:52;7.28;;;2.80;;
77513;SDS011;66626;48.872;9.084;2024-01-07T11:22:26;8.70;;;3.35;;
77513;SDS011;66626;48.872;9.084;2024-01-07T11:24:55;5.82;;;3.05;;
77513;SDS011;66626;48.872;9.084;2024-01-07T11:27:22;6.20;;;3.08;;
77513;SDS011;66626;48.872;9.084;2024-01-07T11:32:44;7.30;;;3.53;;
77513;SDS011;66626;48.872;9.084;2024-01-07T11:35:09;7.15;;;3.20;;
77513;SDS011;66626;48.872;9.084;2024-01-07T11:37:35;7.25;;;3.47;;
77513;SDS011;66626;48.872;9.084;2024-01-07T11:40:02;8.20;;;3.83;;
77513;SDS011;66626;48.872;9.084;2024-01-07T11:42:29;6.90;;;2.85;;
77513;SDS011;66626;48.872;9.084;2024-01-07T11:44:54;5.50;;;2.83;;
77513;SDS011;66626;48.872;9.084;2024-01-07T11:47:20;4.95;;;1.75;;
77513;SDS011;66626;48.872;9.084;2024-01-07T11:49:47;8.18;;;3.05;;
77513;SDS011;66626;48.872;9.084;2024-01-07T11:52:14;7.05;;;2.92;;
77513;SDS011;66626;48.872;9.084;2024-01-07T11:54:39;3.65;;;1.80;;
77513;SDS011;66626;48.872;9.084;2024-01-07T11:57:05;7.72;;;3.75;;
77513;SDS011;66626;48.872;9.084;2024-01-07T11:59:32;8.75;;;3.83;;
77513;SDS011;66626;48.872;9.084;2024-01-07T12:01:59;5.85;;;2.80;;
77513;SDS011;66626;48.872;9.084;2024-01-07T12:04:29;5.13;;;2.15;;
77513;SDS011;66626;48.872;9.084;2024-01-07T12:06:58;6.95;;;3.17;;
77513;SDS011;66626;48.872;9.084;2024-01-07T12:09:24;4.75;;;2.38;;
77513;SDS011;66626;48.872;9.084;2024-01-07T12:11:49;9.07;;;4.47;;
77513;SDS011;66626;48.872;9.084;2024-01-07T12:14:15;15.45;;;4.93;;
77513;SDS011;66626;48.872;9.084;2024-01-07T12:16:40;8.88;;;5.20;;
77513;SDS011;66626;48.872;9.084;2024-01-07T12:19:07;7.88;;;3.55;;
77513;SDS011;66626;48.872;9.084;2024-01-07T12:21:33;12.93;;;6.18;;
77513;SDS011;66626;48.872;9.084;2024-01-07T12:23:59;8.93;;;4.43;;
77513;SDS011;66626;48.872;9.084;2024-01-07T12:26:27;7.25;;;3.30;;
77513;SDS011;66626;48.872;9.084;2024-01-07T12:28:53;6.70;;;3.33;;
77513;SDS011;66626;48.872;9.084;2024-01-07T12:31:24;7.68;;;3.70;;
77513;SDS011;66626;48.872;9.084;2024-01-07T12:33:51;8.73;;;4.18;;
77513;SDS011;66626;48.872;9.084;2024-01-07T12:36:20;9.75;;;4.90;;
77513;SDS011;66626;48.872;9.084;2024-01-07T12:38:46;8.40;;;4.03;;
77513;SDS011;66626;48.872;9.084;2024-01-07T12:41:11;8.70;;;4.45;;
77513;SDS011;66626;48.872;9.084;2024-01-07T12:43:37;7.72;;;3.75;;
77513;SDS011;66626;48.872;9.084;2024-01-07T12:46:02;10.60;;;5.72;;
77513;SDS011;66626;48.872;9.084;2024-01-07T12:48:29;7.53;;;2.70;;
77513;SDS011;66626;48.872;9.084;2024-01-07T12:50:55;12.90;;;4.40;;
77513;SDS011;66626;48.872;9.084;2024-01-07T12:53:21;8.52;;;4.00;;
77513;SDS011;66626;48.872;9.084;2024-01-07T12:55:46;7.97;;;4.90;;
77513;SDS011;66626;48.872;9.084;2024-01-07T12:58:11;9.63;;;4.68;;
77513;SDS011;66626;48.872;9.084;2024-01-07T13:00:37;10.57;;;4.40;;
77513;SDS011;66626;48.872;9.084;2024-01-07T13:03:03;8.00;;;3.55;;
77513;SDS011;66626;48.872;9.084;2024-01-07T13:05:29;7.40;;;4.15;;
77513;SDS011;66626;48.872;9.084;2024-01-07T13:07:55;7.97;;;3.90;;
77513;SDS011;66626;48.872;9.084;2024-01-07T13:10:20;10.55;;;5.75;;
77513;SDS011;66626;48.872;9.084;2024-01-07T13:12:45;10.32;;;4.80;;
77513;SDS011;66626;48.872;9.084;2024-01-07T13:15:11;7.43;;;2.85;;
77513;SDS011;66626;48.872;9.084;2024-01-07T13:17:37;9.75;;;4.60;;
77513;SDS011;66626;48.872;9.084;2024-01-07T13:20:02;10.27;;;4.40;;
77513;SDS011;66626;48.872;9.084;2024-01-07T13:22:31;7.05;;;4.35;;
77513;SDS011;66626;48.872;9.084;2024-01-07T13:24:57;22.23;;;9.18;;
77513;SDS011;66626;48.872;9.084;2024-01-07T13:27:23;11.70;;;4.82;;
77513;SDS011;66626;48.872;9.084;2024-01-07T13:29:49;8.50;;;4.28;;
77513;SDS011;66626;48.872;9.084;2024-01-07T13:32:14;7.25;;;3.72;;
77513;SDS011;66626;48.872;9.084;2024-01-07T13:34:42;6.20;;;3.45;;
77513;SDS011;66626;48.872;9.084;2024-01-07T13:37:08;9.15;;;5.20;;
77513;SDS011;66626;48.872;9.084;2024-01-07T13:39:33;8.25;;;3.95;;
77513;SDS011;66626;48.872;9.084;2024-01-07T13:41:58;5.45;;;3.70;;
77513;SDS011;66626;48.872;9.084;2024-01-07T13:44:24;7.05;;;3.33;;
77513;SDS011;66626;48.872;9.084;2024-01-07T13:46:49;9.38;;;4.70;;
77513;SDS011;66626;48.872;9.084;2024-01-07T13:49:17;16.42;;;7.88;;
77513;SDS011;66626;48.872;9.084;2024-01-07T13:51:42;6.88;;;4.13;;
77513;SDS011;66626;48.872;9.084;2024-01-07T13:54:07;11.05;;;5.30;;
77513;SDS011;66626;48.872;9.084;2024-01-07T13:56:35;10.13;;;5.43;;
77513;SDS011;66626;48.872;9.084;2024-01-07T13:59:02;6.47;;;3.80;;
77513;SDS011;66626;48.872;9.084;2024-01-07T14:01:30;12.70;;;5.65;;
77513;SDS011;66626;48.872;9.084;2024-01-07T14:03:56;10.70;;;4.65;;
77513;SDS011;66626;48.872;9.084;2024-01-07T14:06:22;7.07;;;3.83;;
77513;SDS011;66626;48.872;9.084;2024-01-07T14:08:48;9.95;;;4.60;;
77513;SDS011;66626;48.872;9.084;2024-01-07T14:11:13;6.28;;;3.65;;
77513;SDS011;66626;48.872;9.084;2024-01-07T14:13:38;7.25;;;3.20;;
77513;SDS011;66626;48.872;9.084;2024-01-07T14:16:04;12.77;;;6.18;;
77513;SDS011;66626;48.872;9.084;2024-01-07T14:18:29;8.73;;;4.60;;
77513;SDS011;66626;48.872;9.084;2024-01-07T14:20:55;10.32;;;6.20;;
77513;SDS011;66626;48.872;9.084;2024-01-07T14:23:20;8.25;;;5.30;;
77513;SDS011;66626;48.872;9.084;2024-01-07T14:25:45;10.43;;;4.45;;
77513;SDS011;66626;48.872;9.084;2024-01-07T14:28:11;6.57;;;3.92;;
77513;SDS011;66626;48.872;9.084;2024-01-07T14:30:36;9.70;;;4.93;;
77513;SDS011;66626;48.872;9.084;2024-01-07T14:33:02;4.50;;;2.30;;
77513;SDS011;66626;48.872;9.084;2024-01-07T14:35:27;12.07;;;5.80;;
77513;SDS011;66626;48.872;9.084;2024-01-07T14:37:55;7.57;;;4.30;;